Time;durP1;ratioP1;P1;durP2;ratioP2;P2;SDS_P1;SDS_P2;PMS_P1;PMS_P2;Temp;Humidity;BMP_temperature;BMP_pressure;BME280_temperature;BME280_humidity;BME280_pressure;Samples;Min_cycle;Max_cycle;Signal;HPM_P1;HPM_P2
2023/10/14 00:02:30;;;;;;;9.90;4.60;;;21.90;99.90;;;;;;6283279;22;20220;-42
2023/10/14 00:04:53;;;;;;;8.17;5.47;;;21.90;99.90;;;;;;6301456;22;20726;-40
2023/10/14 00:07:20;;;;;;;11.53;5.30;;;21.90;99.90;;;;;;6306052;22;20440;-41
2023/10/14 00:09:50;;;;;;;7.50;5.27;;;21.90;99.90;;;;;;6306603;22;20442;-41
2023/10/14 00:12:16;;;;;;;6.23;4.77;;;21.90;99.90;;;;;;6307028;22;20385;-40
2023/10/14 00:14:43;;;;;;;5.50;5.00;;;21.90;99.90;;;;;;6307414;22;20357;-39
2023/10/14 00:17:14;;;;;;;5.70;4.87;;;21.90;99.90;;;;;;6309472;22;20388;-39
2023/10/14 00:19:40;;;;;;;5.80;4.60;;;21.90;99.90;;;;;;6310321;22;20386;-38
2023/10/14 00:22:07;;;;;;;5.77;5.17;;;21.90;99.90;;;;;;6311596;22;20564;-38
2023/10/14 00:24:33;;;;;;;10.03;5.07;;;21.90;99.90;;;;;;6311975;22;20171;-38
2023/10/14 00:26:58;;;;;;;11.10;6.40;;;21.90;99.90;;;;;;6311105;22;20385;-39
2023/10/14 00:29:29;;;;;;;16.00;5.73;;;21.90;99.90;;;;;;6283717;22;20418;-39
2023/10/14 00:31:54;;;;;;;6.97;5.37;;;21.90;99.90;;;;;;6284997;22;20396;-40
2023/10/14 00:34:22;;;;;;;7.50;6.20;;;21.90;99.90;;;;;;6310777;22;20382;-44
2023/10/14 00:36:57;;;;;;;5.80;5.30;;;21.90;99.90;;;;;;6310959;22;20152;-40
2023/10/14 00:39:32;;;;;;;7.23;5.47;;;21.90;99.90;;;;;;6310028;22;20642;-41
2023/10/14 00:41:58;;;;;;;7.47;5.20;;;21.90;99.90;;;;;;6309157;22;20496;-39
2023/10/14 00:44:24;;;;;;;7.47;5.80;;;21.80;99.90;;;;;;6310436;22;20453;-40
2023/10/14 00:46:50;;;;;;;7.27;6.50;;;21.80;99.90;;;;;;6311207;22;20382;-41
2023/10/14 00:49:18;;;;;;;10.70;6.13;;;21.70;99.90;;;;;;6309920;22;20421;-39
2023/10/14 00:51:45;;;;;;;7.83;6.50;;;21.70;99.90;;;;;;6311692;22;20409;-39
2023/10/14 00:54:13;;;;;;;8.17;6.40;;;21.60;99.90;;;;;;6284004;22;20424;-38
2023/10/14 00:56:42;;;;;;;10.37;7.00;;;21.60;99.90;;;;;;6309873;22;20361;-39
2023/10/14 00:59:09;;;;;;;7.40;6.70;;;21.50;99.90;;;;;;6310290;22;20618;-39
2023/10/14 01:04:19;;;;;;;9.53;6.67;;;21.40;99.90;;;;;;6311507;22;20385;-39
2023/10/14 01:09:42;;;;;;;6.07;5.40;;;21.30;99.90;;;;;;6308277;22;20444;-39
2023/10/14 01:12:37;;;;;;;7.00;6.30;;;21.20;99.90;;;;;;6309299;22;20393;-38
2023/10/14 01:15:20;;;;;;;8.07;7.33;;;21.10;99.90;;;;;;6308660;22;20786;-38
2023/10/14 01:17:46;;;;;;;8.13;7.37;;;21.00;99.90;;;;;;6308307;22;20351;-39
2023/10/14 01:22:40;;;;;;;7.37;6.30;;;20.90;1.00;;;;;;6309050;22;20164;-38
2023/10/14 01:25:12;;;;;;;7.63;6.83;;;20.90;1.00;;;;;;6307440;22;20406;-39
2023/10/14 01:27:38;;;;;;;11.13;7.27;;;20.80;1.00;;;;;;6307673;22;20382;-38
2023/10/14 01:30:11;;;;;;;7.23;6.63;;;20.80;1.00;;;;;;6306668;22;20540;-39
2023/10/14 01:32:49;;;;;;;7.47;6.87;;;20.80;1.00;;;;;;6308858;22;20351;-38
2023/10/14 01:37:54;;;;;;;7.87;6.80;;;20.80;1.00;;;;;;6309468;22;20389;-38
2023/10/14 01:40:27;;;;;;;8.17;7.00;;;20.80;1.00;;;;;;6309447;22;20378;-38
2023/10/14 01:42:57;;;;;;;8.57;7.73;;;20.70;1.00;;;;;;6308307;22;20776;-38
2023/10/14 01:45:39;;;;;;;8.20;7.07;;;20.70;1.00;;;;;;6306813;22;20382;-38
2023/10/14 01:51:03;;;;;;;8.07;7.13;;;20.60;1.00;;;;;;6308284;22;20428;-40
2023/10/14 01:53:35;;;;;;;8.73;7.87;;;20.60;1.00;;;;;;6277035;22;20385;-39
2023/10/14 01:56:01;;;;;;;8.00;7.27;;;20.60;1.00;;;;;;6254423;22;20397;-38
2023/10/14 02:03:50;;;;;;;10.80;7.57;;;20.50;1.00;;;;;;6307798;22;20440;-39
2023/10/14 02:09:38;;;;;;;7.93;7.23;;;20.60;1.00;;;;;;6304775;22;20508;-38
2023/10/14 02:12:04;;;;;;;11.00;7.83;;;20.50;1.00;;;;;;6307824;22;20777;-39
2023/10/14 02:14:30;;;;;;;7.50;6.77;;;20.50;1.00;;;;;;6307059;22;20148;-38
2023/10/14 02:16:55;;;;;;;11.57;7.63;;;20.50;1.00;;;;;;6307319;22;20769;-38
2023/10/14 02:19:36;;;;;;;10.50;7.00;;;20.50;1.00;;;;;;6306563;22;20154;-38
2023/10/14 02:22:10;;;;;;;8.47;7.30;;;20.50;1.00;;;;;;6307181;22;20142;-40
2023/10/14 02:24:36;;;;;;;10.87;8.07;;;20.40;1.00;;;;;;6307194;22;20389;-40
2023/10/14 02:27:12;;;;;;;8.63;7.83;;;20.40;1.00;;;;;;6307547;22;20803;-38
2023/10/14 02:29:43;;;;;;;8.57;7.20;;;20.40;1.00;;;;;;6306821;22;20562;-37
2023/10/14 02:32:13;;;;;;;8.37;7.67;;;20.40;1.00;;;;;;6306017;22;20754;-38
2023/10/14 02:34:39;;;;;;;9.00;7.80;;;20.40;1.00;;;;;;6307296;22;20397;-40
2023/10/14 02:37:07;;;;;;;9.30;7.73;;;20.40;1.00;;;;;;6307975;22;20428;-38
2023/10/14 02:39:33;;;;;;;8.67;7.87;;;20.40;1.00;;;;;;6307824;22;20381;-41
2023/10/14 02:41:59;;;;;;;8.30;7.50;;;20.40;1.00;;;;;;6306367;22;20474;-38
2023/10/14 02:44:32;;;;;;;7.60;6.80;;;20.40;1.00;;;;;;6307227;22;20159;-38
2023/10/14 02:47:05;;;;;;;9.97;7.77;;;20.40;1.00;;;;;;6308083;22;20393;-37
2023/10/14 02:49:38;;;;;;;8.17;7.00;;;20.40;1.00;;;;;;6307451;22;20475;-38
2023/10/14 02:52:11;;;;;;;6.90;6.37;;;20.40;1.00;;;;;;6307567;22;20770;-38
2023/10/14 02:54:42;;;;;;;9.63;7.67;;;20.50;1.00;;;;;;6308563;22;20374;-38
2023/10/14 02:57:15;;;;;;;8.00;7.20;;;20.40;1.00;;;;;;6307342;22;20394;-38
2023/10/14 02:59:44;;;;;;;8.00;7.20;;;20.50;1.00;;;;;;6308619;22;20473;-38
2023/10/14 03:07:23;;;;;;;11.23;7.50;;;20.50;1.00;;;;;;6306775;22;20377;-41
2023/10/14 03:09:49;;;;;;;11.30;7.43;;;20.40;1.00;;;;;;6301484;22;20494;-38
2023/10/14 03:12:18;;;;;;;9.30;8.00;;;20.50;1.00;;;;;;6304997;22;21039;-39
2023/10/14 03:14:54;;;;;;;9.47;8.20;;;20.50;1.00;;;;;;6305016;22;20378;-37
2023/10/14 03:17:25;;;;;;;8.30;7.60;;;20.50;1.00;;;;;;6304492;22;20700;-39
2023/10/14 03:19:53;;;;;;;8.90;8.10;;;20.50;1.00;;;;;;6305135;22;20382;-38
2023/10/14 03:22:22;;;;;;;8.63;7.50;;;20.60;1.00;;;;;;6307856;22;20382;-38
2023/10/14 03:24:51;;;;;;;13.17;7.70;;;20.50;1.00;;;;;;6308261;22;20389;-38
2023/10/14 03:27:18;;;;;;;10.00;7.30;;;20.50;1.00;;;;;;6308637;22;20389;-39
2023/10/14 03:29:52;;;;;;;8.90;8.00;;;20.50;1.00;;;;;;6307010;22;20426;-40
2023/10/14 03:32:17;;;;;;;7.97;7.20;;;20.50;1.00;;;;;;6307565;22;20420;-39
2023/10/14 03:34:43;;;;;;;8.80;7.90;;;20.50;1.00;;;;;;6306648;22;20382;-38
2023/10/14 03:37:23;;;;;;;8.80;8.00;;;20.50;1.00;;;;;;6306076;22;20159;-38
2023/10/14 03:40:34;;;;;;;9.53;8.57;;;20.50;1.00;;;;;;6306573;22;20396;-41
2023/10/14 03:42:35;;;;;;;7.93;7.23;;;20.40;2.60;;;;;;6305770;22;20858;-40
2023/10/14 03:45:00;;;;;;;9.03;8.17;;;20.40;5.40;;;;;;6306556;22;20382;-39
2023/10/14 03:47:34;;;;;;;9.33;8.17;;;20.40;5.20;;;;;;6305627;22;20809;-38
2023/10/14 03:50:00;;;;;;;9.93;8.60;;;20.40;14.90;;;;;;6307168;22;20187;-39
2023/10/14 03:52:26;;;;;;;8.40;7.60;;;20.40;17.30;;;;;;6308409;22;20789;-39
2023/10/14 03:54:52;;;;;;;8.67;7.87;;;20.40;25.70;;;;;;6308613;22;20460;-41
2023/10/14 03:57:19;;;;;;;11.03;7.83;;;20.40;29.60;;;;;;6308034;22;20382;-38
2023/10/14 03:59:47;;;;;;;8.33;7.27;;;20.40;58.60;;;;;;6308083;22;20140;-39
2023/10/14 04:02:19;;;;;;;7.90;7.20;;;20.40;48.30;;;;;;6307484;22;20710;-39
2023/10/14 04:04:44;;;;;;;8.70;7.90;;;20.40;57.60;;;;;;6308380;22;20425;-38
2023/10/14 04:08:06;;;;;;;9.57;8.57;;;20.40;89.50;;;;;;6307578;22;20381;-39
2023/10/14 04:10:37;;;;;;;11.77;8.50;;;20.40;99.90;;;;;;6306552;22;20206;-40
2023/10/14 04:13:04;;;;;;;9.50;8.50;;;20.30;99.90;;;;;;6306786;22;20441;-38
2023/10/14 04:21:25;;;;;;;13.40;8.40;;;20.30;99.90;;;;;;6306425;22;20440;-39
2023/10/14 04:26:36;;;;;;;9.67;8.00;;;20.30;99.90;;;;;;6307187;22;20404;-39
2023/10/14 04:29:12;;;;;;;11.23;7.83;;;20.30;99.90;;;;;;6305823;22;20813;-45
2023/10/14 04:31:40;;;;;;;9.07;8.17;;;20.30;99.90;;;;;;6307609;22;20432;-38
2023/10/14 04:34:08;;;;;;;10.00;8.10;;;20.30;99.90;;;;;;6306948;22;20357;-39
2023/10/14 04:36:38;;;;;;;11.70;8.20;;;20.20;99.90;;;;;;6307028;22;20493;-38
2023/10/14 04:39:14;;;;;;;13.23;7.90;;;20.20;99.90;;;;;;6306294;22;20382;-39
2023/10/14 04:41:55;;;;;;;8.60;7.70;;;20.20;99.90;;;;;;6305091;22;20381;-41
2023/10/14 04:44:23;;;;;;;8.60;7.73;;;20.20;99.90;;;;;;6306700;22;20390;-47
2023/10/14 04:46:55;;;;;;;8.73;7.93;;;20.10;97.10;;;;;;6306882;22;20358;-39
2023/10/14 04:49:35;;;;;;;10.87;7.73;;;20.10;87.30;;;;;;6306401;22;20402;-39
2023/10/14 04:52:02;;;;;;;8.00;7.03;;;20.10;68.40;;;;;;6304830;22;20350;-37
2023/10/14 04:54:29;;;;;;;7.70;6.70;;;20.10;53.80;;;;;;6306228;22;20438;-39
2023/10/14 04:56:57;;;;;;;7.23;6.47;;;20.10;37.30;;;;;;6306126;22;20611;-39
2023/10/14 04:59:24;;;;;;;7.80;6.47;;;20.10;27.70;;;;;;6306368;22;20463;-40
2023/10/14 05:01:50;;;;;;;8.77;7.83;;;20.10;18.20;;;;;;6305938;22;20362;-40
2023/10/14 05:04:20;;;;;;;10.80;7.17;;;20.10;12.00;;;;;;6305799;22;20693;-41
2023/10/14 05:06:52;;;;;;;9.03;7.13;;;20.10;2.90;;;;;;6307711;22;20397;-39
2023/10/14 05:09:30;;;;;;;12.40;6.43;;;20.10;1.00;;;;;;6307682;22;20425;-38
2023/10/14 05:11:57;;;;;;;10.73;7.27;;;20.10;1.00;;;;;;6307617;22;20761;-39
2023/10/14 05:14:37;;;;;;;6.73;5.97;;;20.10;1.00;;;;;;6307646;22;20427;-40
2023/10/14 05:19:43;;;;;;;7.43;6.20;;;20.10;1.00;;;;;;6308307;22;20362;-38
2023/10/14 05:22:19;;;;;;;7.70;6.43;;;20.10;1.00;;;;;;6306596;22;20405;-39
2023/10/14 05:24:49;;;;;;;12.20;6.70;;;20.10;1.00;;;;;;6308169;22;20389;-39
2023/10/14 05:27:21;;;;;;;7.43;6.27;;;20.10;1.00;;;;;;6308478;22;20400;-39
2023/10/14 05:29:53;;;;;;;7.87;5.90;;;20.10;1.00;;;;;;6309218;22;20430;-39
2023/10/14 05:32:24;;;;;;;6.87;6.20;;;20.10;1.00;;;;;;6307841;22;20382;-39
2023/10/14 05:34:50;;;;;;;6.67;6.07;;;20.10;1.00;;;;;;6309418;22;20437;-38
2023/10/14 05:37:16;;;;;;;6.90;6.30;;;20.10;1.00;;;;;;6308351;22;20354;-40
2023/10/14 05:39:42;;;;;;;7.17;6.43;;;20.10;1.00;;;;;;6307488;22;20534;-41
2023/10/14 05:42:21;;;;;;;7.87;6.60;;;20.10;1.00;;;;;;6307788;22;20409;-39
2023/10/14 05:44:47;;;;;;;7.20;6.10;;;20.10;1.00;;;;;;6306752;22;20390;-38
2023/10/14 05:47:22;;;;;;;7.83;6.33;;;20.20;1.00;;;;;;6307803;22;20842;-38
2023/10/14 05:49:52;;;;;;;9.33;6.73;;;20.20;1.00;;;;;;6307025;22;20439;-40
2023/10/14 05:52:23;;;;;;;8.10;6.80;;;20.20;1.00;;;;;;6308160;22;20685;-40
2023/10/14 05:54:49;;;;;;;8.27;6.50;;;20.20;1.00;;;;;;6306486;22;20375;-39
2023/10/14 05:57:18;;;;;;;7.90;7.10;;;20.20;1.00;;;;;;6306726;22;20386;-40
2023/10/14 05:59:44;;;;;;;8.73;6.43;;;20.20;1.00;;;;;;6305566;22;20816;-39
2023/10/14 06:02:13;;;;;;;8.07;7.17;;;20.30;1.00;;;;;;6305318;22;20386;-39
2023/10/14 06:04:41;;;;;;;7.60;6.90;;;20.30;1.00;;;;;;6304723;22;20507;-38
2023/10/14 06:07:18;;;;;;;8.00;7.20;;;20.20;1.00;;;;;;6304613;22;20453;-40
2023/10/14 06:09:46;;;;;;;8.07;7.40;;;20.30;1.00;;;;;;6303905;22;20440;-38
2023/10/14 06:12:12;;;;;;;9.13;6.93;;;20.30;10.20;;;;;;6304108;22;20382;-39
2023/10/14 06:14:42;;;;;;;10.47;7.10;;;20.30;23.80;;;;;;6306548;22;20915;-39
2023/10/14 06:17:08;;;;;;;8.73;7.20;;;20.30;34.70;;;;;;6305751;22;20397;-39
2023/10/14 06:19:36;;;;;;;8.20;7.30;;;20.30;41.20;;;;;;6305093;22;20427;-38
2023/10/14 06:22:02;;;;;;;10.53;7.43;;;20.30;88.10;;;;;;6304261;22;20437;-40
2023/10/14 06:24:31;;;;;;;8.30;7.37;;;20.30;99.90;;;;;;6307976;22;20405;-38
2023/10/14 06:27:07;;;;;;;8.80;8.00;;;20.30;99.90;;;;;;6305804;22;20681;-40
2023/10/14 06:29:36;;;;;;;8.00;7.00;;;20.30;99.90;;;;;;6280572;22;20910;-40
2023/10/14 06:32:03;;;;;;;7.73;6.93;;;20.30;99.90;;;;;;6279035;22;20801;-40
2023/10/14 06:34:31;;;;;;;8.60;7.40;;;20.30;99.90;;;;;;6305749;22;20734;-40
2023/10/14 06:37:01;;;;;;;8.13;6.80;;;20.40;99.90;;;;;;6305181;22;20425;-41
2023/10/14 06:39:27;;;;;;;7.60;6.90;;;20.40;99.90;;;;;;6305203;22;20398;-41
2023/10/14 06:41:55;;;;;;;8.30;7.50;;;20.40;99.90;;;;;;6305527;22;20389;-40
2023/10/14 06:44:27;;;;;;;8.70;7.90;;;20.40;99.90;;;;;;6306361;22;20366;-39
2023/10/14 06:46:56;;;;;;;8.03;7.00;;;20.40;99.90;;;;;;6305044;22;20476;-40
2023/10/14 06:49:23;;;;;;;10.80;7.40;;;20.50;99.90;;;;;;6302841;22;20429;-41
2023/10/14 06:51:52;;;;;;;9.80;7.37;;;20.50;99.90;;;;;;6303024;22;20734;-39
2023/10/14 06:54:25;;;;;;;7.40;6.70;;;20.60;99.90;;;;;;6302094;22;20451;-39
2023/10/14 06:56:54;;;;;;;7.87;6.90;;;20.60;89.30;;;;;;6300932;22;20382;-40
2023/10/14 06:59:23;;;;;;;8.33;7.10;;;20.60;65.40;;;;;;6301248;22;20367;-42
2023/10/14 07:01:48;;;;;;;7.30;6.57;;;20.60;70.80;;;;;;6300877;22;20424;-39
2023/10/14 07:04:16;;;;;;;7.73;6.93;;;20.60;74.80;;;;;;6276415;22;20386;-38
2023/10/14 07:06:47;;;;;;;7.50;6.70;;;20.60;91.90;;;;;;6304301;22;20178;-39
2023/10/14 07:09:23;;;;;;;8.27;7.40;;;20.60;99.20;;;;;;6280590;22;20509;-39
2023/10/14 07:11:49;;;;;;;6.60;6.00;;;20.70;95.20;;;;;;6306777;22;20381;-39
2023/10/14 07:14:15;;;;;;;8.73;6.50;;;20.80;82.10;;;;;;6305688;22;20650;-38
2023/10/14 07:16:40;;;;;;;6.93;6.33;;;20.90;62.60;;;;;;6306522;22;20378;-41
2023/10/14 07:19:06;;;;;;;8.40;6.90;;;21.00;41.20;;;;;;6305952;22;20489;-38
2023/10/14 07:21:33;;;;;;;7.90;7.20;;;21.10;21.10;;;;;;6306188;22;20195;-39
2023/10/14 07:24:05;;;;;;;9.00;7.23;;;21.30;7.60;;;;;;6278506;22;20217;-39
2023/10/14 07:26:36;;;;;;;12.83;7.43;;;21.50;1.00;;;;;;6304369;22;20355;-39
2023/10/14 07:29:02;;;;;;;8.17;6.30;;;21.90;1.00;;;;;;6305491;22;20417;-38
2023/10/14 07:31:30;;;;;;;7.73;6.60;;;22.30;1.00;;;;;;6303872;22;20421;-38
2023/10/14 07:34:02;;;;;;;8.47;6.57;;;22.70;1.00;;;;;;6277740;22;20386;-39
2023/10/14 07:36:31;;;;;;;6.93;5.90;;;23.00;1.00;;;;;;6277578;22;20402;-42
2023/10/14 07:39:02;;;;;;;9.83;7.40;;;23.10;1.00;;;;;;6279840;22;20820;-39
2023/10/14 07:41:28;;;;;;;5.67;5.17;;;23.20;1.00;;;;;;6307460;22;20825;-38
2023/10/14 07:43:54;;;;;;;6.30;5.70;;;23.10;1.00;;;;;;6306810;22;20386;-38
2023/10/14 07:46:20;;;;;;;6.60;5.70;;;23.00;1.00;;;;;;6307117;22;20724;-38
2023/10/14 07:48:47;;;;;;;6.33;5.50;;;22.90;1.00;;;;;;6279605;22;20625;-39
2023/10/14 07:51:14;;;;;;;7.33;5.00;;;22.80;1.00;;;;;;6308122;22;20675;-38
2023/10/14 07:53:40;;;;;;;6.23;4.40;;;22.60;1.00;;;;;;6306057;22;20431;-43
2023/10/14 07:56:06;;;;;;;6.50;4.73;;;22.30;1.00;;;;;;6279636;22;20809;-38
2023/10/14 07:58:32;;;;;;;5.87;3.93;;;22.10;1.00;;;;;;6304942;22;20235;-40
2023/10/14 08:01:03;;;;;;;8.60;4.13;;;21.90;1.00;;;;;;6277366;22;20475;-41
2023/10/14 08:03:29;;;;;;;6.37;4.73;;;21.70;1.00;;;;;;6306099;22;20171;-38
2023/10/14 08:05:59;;;;;;;4.40;3.97;;;21.60;1.00;;;;;;6304635;22;20413;-39
2023/10/14 08:08:30;;;;;;;8.07;4.17;;;21.30;1.00;;;;;;6304320;22;20535;-40
2023/10/14 08:10:57;;;;;;;4.60;3.73;;;21.00;1.00;;;;;;6306505;22;20676;-38
2023/10/14 08:13:23;;;;;;;7.23;3.80;;;20.90;1.00;;;;;;6305779;22;20508;-40
2023/10/14 08:15:50;;;;;;;3.70;2.70;;;20.80;1.00;;;;;;6302777;22;20646;-40
2023/10/14 08:18:16;;;;;;;4.20;3.30;;;20.70;1.00;;;;;;6302758;22;20148;-41
2023/10/14 08:20:45;;;;;;;7.27;3.53;;;20.70;1.00;;;;;;6302541;22;20830;-39
2023/10/14 08:23:12;;;;;;;6.10;3.30;;;20.60;1.00;;;;;;6303465;22;20355;-39
2023/10/14 08:25:53;;;;;;;4.57;4.17;;;20.70;1.00;;;;;;6307076;22;20436;-40
2023/10/14 08:28:28;;;;;;;5.37;3.70;;;20.70;1.00;;;;;;6306578;22;20382;-39
2023/10/14 08:30:57;;;;;;;5.93;4.03;;;20.80;1.00;;;;;;6308026;22;20415;-39
2023/10/14 08:33:24;;;;;;;7.00;4.70;;;20.80;1.00;;;;;;6307748;22;20378;-39
2023/10/14 08:35:51;;;;;;;6.60;4.83;;;20.80;24.40;;;;;;6307640;22;20361;-39
2023/10/14 08:38:21;;;;;;;9.07;5.57;;;20.90;29.90;;;;;;6305695;22;20668;-38
2023/10/14 08:40:51;;;;;;;7.17;5.20;;;21.00;99.70;;;;;;6279796;22;20642;-38
2023/10/14 08:43:22;;;;;;;6.00;5.40;;;21.50;97.50;;;;;;6308035;22;20386;-39
2023/10/14 08:45:48;;;;;;;12.40;5.73;;;22.20;37.00;;;;;;6306988;22;20389;-42
2023/10/14 08:48:18;;;;;;;7.07;5.60;;;23.00;1.00;;;;;;6305985;22;20673;-40
2023/10/14 08:50:47;;;;;;;8.03;5.60;;;23.80;1.00;;;;;;6302588;22;20342;-39
2023/10/14 08:53:13;;;;;;;8.33;5.90;;;24.60;1.00;;;;;;6307233;22;20359;-39
2023/10/14 08:55:40;;;;;;;7.97;5.57;;;25.30;1.00;;;;;;6278987;22;20809;-41
2023/10/14 08:58:07;;;;;;;10.17;5.63;;;25.90;1.00;;;;;;6305422;22;20335;-38
2023/10/14 09:00:37;;;;;;;9.27;5.87;;;26.20;1.00;;;;;;6304306;22;20385;-40
2023/10/14 09:03:07;;;;;;;7.13;5.30;;;26.20;1.00;;;;;;6278256;22;20381;-41
2023/10/14 09:05:34;;;;;;;6.97;5.63;;;25.80;1.00;;;;;;6305752;22;20474;-38
2023/10/14 09:08:00;;;;;;;8.27;5.60;;;25.50;1.00;;;;;;6304333;22;20397;-39
2023/10/14 09:10:26;;;;;;;7.57;5.67;;;25.20;1.00;;;;;;6275619;22;20986;-40
2023/10/14 09:12:57;;;;;;;6.60;5.37;;;24.90;1.00;;;;;;6306508;22;20386;-40
2023/10/14 09:15:29;;;;;;;10.33;5.77;;;24.60;1.00;;;;;;6307042;22;20487;-39
2023/10/14 09:17:56;;;;;;;7.23;6.00;;;24.60;1.00;;;;;;6302737;22;20650;-39
2023/10/14 09:20:33;;;;;;;5.27;4.57;;;25.30;1.00;;;;;;6303045;22;20432;-39
2023/10/14 09:23:17;;;;;;;5.63;4.80;;;26.10;1.00;;;;;;6307576;22;20362;-39
2023/10/14 09:25:52;;;;;;;5.90;4.80;;;26.40;1.00;;;;;;6307066;22;20413;-40
2023/10/14 09:28:20;;;;;;;4.83;3.70;;;26.30;1.00;;;;;;6306842;22;20390;-39
2023/10/14 09:30:50;;;;;;;3.57;2.30;;;25.70;1.00;;;;;;6277330;22;20381;-40
2023/10/14 09:33:20;;;;;;;5.20;3.10;;;25.10;1.00;;;;;;6278781;22;20477;-40
2023/10/14 09:35:52;;;;;;;10.13;3.10;;;24.60;1.00;;;;;;6303192;22;20350;-38
2023/10/14 09:38:19;;;;;;;5.13;2.80;;;24.10;1.00;;;;;;6305530;22;20427;-38
2023/10/14 09:40:50;;;;;;;7.97;3.03;;;23.70;1.00;;;;;;6280351;22;20378;-40
2023/10/14 09:43:17;;;;;;;4.57;1.90;;;23.40;1.00;;;;;;6307966;22;20383;-39
2023/10/14 09:45:44;;;;;;;5.73;1.90;;;23.10;1.00;;;;;;6306592;22;20378;-39
2023/10/14 09:48:11;;;;;;;4.17;1.93;;;22.90;1.00;;;;;;6280410;22;20420;-37
2023/10/14 09:50:37;;;;;;;4.57;1.70;;;22.60;1.00;;;;;;6281825;22;20355;-38
2023/10/14 09:53:03;;;;;;;2.23;1.17;;;22.50;1.00;;;;;;6280267;22;20405;-39
2023/10/14 09:55:29;;;;;;;1.40;1.10;;;22.30;1.00;;;;;;6279298;22;20697;-41
2023/10/14 09:57:55;;;;;;;1.93;1.20;;;22.20;1.00;;;;;;6277824;22;20386;-41
2023/10/14 10:00:21;;;;;;;4.93;1.10;;;22.10;1.00;;;;;;6278356;22;20167;-40
2023/10/14 10:02:49;;;;;;;1.20;0.70;;;22.10;1.00;;;;;;6278253;22;20363;-39
2023/10/14 10:05:21;;;;;;;2.60;1.03;;;22.00;1.00;;;;;;6278018;22;20596;-39
2023/10/14 10:07:53;;;;;;;2.13;0.90;;;21.90;1.00;;;;;;6277446;22;20422;-40
2023/10/14 10:10:22;;;;;;;1.37;0.67;;;22.00;1.00;;;;;;6305609;22;20418;-41
2023/10/14 10:12:55;;;;;;;1.10;0.60;;;21.90;1.00;;;;;;6278552;22;20445;-41
2023/10/14 10:15:24;;;;;;;2.73;0.80;;;21.90;1.00;;;;;;6303289;22;20382;-40
2023/10/14 10:18:05;;;;;;;1.50;0.60;;;21.90;1.00;;;;;;6280592;22;20471;-39
2023/10/14 10:20:40;;;;;;;1.10;0.47;;;21.90;1.00;;;;;;6304154;22;20509;-40
2023/10/14 10:23:09;;;;;;;1.73;0.60;;;21.80;1.00;;;;;;6276429;22;20391;-40
2023/10/14 10:25:35;;;;;;;5.60;0.83;;;21.80;1.00;;;;;;6278256;22;20463;-40
2023/10/14 10:28:27;;;;;;;1.40;0.70;;;21.80;1.00;;;;;;6304872;22;20378;-41
2023/10/14 10:31:23;;;;;;;1.73;0.60;;;21.90;1.00;;;;;;6302777;22;20167;-41
2023/10/14 10:33:54;;;;;;;1.03;0.50;;;22.00;1.00;;;;;;6279548;22;20450;-42
2023/10/14 10:36:28;;;;;;;1.40;1.00;;;22.00;1.00;;;;;;6304609;22;20398;-40
2023/10/14 10:38:55;;;;;;;1.33;0.53;;;22.00;1.00;;;;;;6303846;22;20381;-39
2023/10/14 10:41:27;;;;;;;2.60;0.50;;;21.90;1.00;;;;;;6302853;22;20662;-42
2023/10/14 10:44:01;;;;;;;1.70;0.60;;;21.80;1.00;;;;;;6306111;22;20378;-40
2023/10/14 10:46:44;;;;;;;1.03;0.60;;;21.70;1.00;;;;;;6278083;22;20378;-39
2023/10/14 10:49:12;;;;;;;1.73;0.50;;;21.60;1.00;;;;;;6305722;22;20460;-42
2023/10/14 10:52:12;;;;;;;0.90;0.40;;;21.50;1.00;;;;;;6306850;22;20701;-39
2023/10/14 10:54:39;;;;;;;1.63;0.53;;;21.50;1.00;;;;;;6308321;22;20378;-40
2023/10/14 10:57:05;;;;;;;2.20;0.80;;;21.40;1.00;;;;;;6307970;22;20378;-40
2023/10/14 10:59:31;;;;;;;1.27;0.40;;;21.30;1.00;;;;;;6305983;22;20424;-41
2023/10/14 11:02:00;;;;;;;1.90;0.70;;;21.30;1.00;;;;;;6279158;22;20766;-40
2023/10/14 11:04:25;;;;;;;0.93;0.30;;;21.20;1.00;;;;;;6305257;22;20432;-38
2023/10/14 11:06:51;;;;;;;2.60;0.80;;;21.10;1.00;;;;;;6302831;22;20429;-39
2023/10/14 11:09:17;;;;;;;3.67;0.77;;;21.00;1.00;;;;;;6301997;22;20248;-41
2023/10/14 11:11:43;;;;;;;4.60;0.93;;;21.00;1.00;;;;;;6274806;22;20144;-41
2023/10/14 11:14:20;;;;;;;19.53;2.40;;;20.90;1.00;;;;;;6302712;22;20128;-34
2023/10/14 11:16:53;;;;;;;24.67;2.60;;;20.80;1.00;;;;;;6302725;22;20431;-39
2023/10/14 11:19:22;;;;;;;14.03;1.57;;;20.80;1.00;;;;;;6304118;22;20476;-41
2023/10/14 11:21:51;;;;;;;8.97;1.83;;;20.70;1.00;;;;;;6305214;22;20832;-39
2023/10/14 11:24:16;;;;;;;13.50;1.90;;;20.70;1.00;;;;;;6277829;22;20390;-44
2023/10/14 11:26:45;;;;;;;10.20;1.60;;;20.70;1.00;;;;;;6305376;22;20369;-42
2023/10/14 11:29:12;;;;;;;13.40;1.33;;;20.80;1.00;;;;;;6301891;22;20266;-43
2023/10/14 11:31:40;;;;;;;5.00;1.23;;;20.70;1.00;;;;;;6249810;22;20444;-44
2023/10/14 11:34:06;;;;;;;6.00;1.27;;;20.90;1.00;;;;;;6302213;22;20392;-46
2023/10/14 11:36:32;;;;;;;4.87;1.37;;;21.00;1.00;;;;;;6277530;22;20413;-41
2023/10/14 11:39:01;;;;;;;6.47;0.80;;;21.10;1.00;;;;;;6305516;22;20386;-43
2023/10/14 11:41:27;;;;;;;4.83;0.97;;;21.30;1.00;;;;;;6304771;22;20211;-44
2023/10/14 11:43:53;;;;;;;4.40;0.80;;;21.50;1.00;;;;;;6277967;22;20474;-42
2023/10/14 11:46:19;;;;;;;3.80;1.00;;;21.60;1.00;;;;;;6302063;22;20523;-42
2023/10/14 11:48:47;;;;;;;4.93;1.00;;;21.60;1.00;;;;;;6300451;22;20890;-44
2023/10/14 11:51:22;;;;;;;2.90;0.70;;;21.70;1.00;;;;;;6299709;22;20378;-42
2023/10/14 11:53:52;;;;;;;2.33;0.90;;;21.70;1.00;;;;;;6299236;22;20412;-42
2023/10/14 11:56:18;;;;;;;5.20;0.80;;;21.70;1.00;;;;;;6300629;22;20410;-42
2023/10/14 11:58:45;;;;;;;1.50;0.73;;;21.80;1.00;;;;;;6302728;22;20392;-43
2023/10/14 12:01:11;;;;;;;5.23;0.60;;;21.80;1.00;;;;;;6302284;22;20398;-45
2023/10/14 12:03:38;;;;;;;1.63;0.80;;;21.70;1.00;;;;;;6303100;22;20390;-45
2023/10/14 12:06:12;;;;;;;1.27;0.60;;;21.60;1.00;;;;;;6303297;22;20481;-45
2023/10/14 12:08:38;;;;;;;3.20;0.60;;;21.60;1.00;;;;;;6304872;22;20574;-44
2023/10/14 12:11:04;;;;;;;3.17;0.70;;;21.50;1.00;;;;;;6304574;22;20586;-40
2023/10/14 12:13:31;;;;;;;4.87;1.30;;;21.50;1.00;;;;;;6305222;22;20382;-41
2023/10/14 12:15:56;;;;;;;1.80;0.60;;;21.50;1.00;;;;;;6300159;22;20469;-41
2023/10/14 12:18:22;;;;;;;1.60;0.50;;;21.40;1.00;;;;;;6301320;22;20385;-42
2023/10/14 12:20:49;;;;;;;1.60;0.70;;;21.40;1.00;;;;;;6271081;22;20212;-42
2023/10/14 12:23:20;;;;;;;2.40;0.80;;;21.30;1.00;;;;;;6271384;22;20359;-40
2023/10/14 12:25:48;;;;;;;1.10;0.50;;;21.20;1.00;;;;;;6270572;22;20703;-41
2023/10/14 12:28:18;;;;;;;1.90;0.50;;;21.20;1.00;;;;;;6271138;22;20482;-41
2023/10/14 12:30:46;;;;;;;2.70;0.70;;;21.10;1.00;;;;;;6270500;22;20379;-50
2023/10/14 12:33:19;;;;;;;1.17;0.57;;;21.10;1.00;;;;;;6272398;22;20531;-42
2023/10/14 12:35:45;;;;;;;1.67;0.60;;;21.00;1.00;;;;;;6272971;22;20360;-41
2023/10/14 12:38:15;;;;;;;1.17;0.50;;;21.00;1.00;;;;;;6272739;22;20374;-39
2023/10/14 12:40:43;;;;;;;3.57;0.50;;;21.00;1.00;;;;;;6271962;22;20380;-41
2023/10/14 12:43:12;;;;;;;2.73;0.50;;;20.90;1.00;;;;;;6272211;22;20387;-41
2023/10/14 12:45:38;;;;;;;2.93;0.53;;;20.80;1.00;;;;;;6272374;22;20462;-40
2023/10/14 12:48:10;;;;;;;1.20;0.50;;;20.70;1.00;;;;;;6272040;22;20865;-40
2023/10/14 12:50:46;;;;;;;2.40;0.60;;;20.60;1.00;;;;;;6271482;22;20452;-41
2023/10/14 12:53:12;;;;;;;1.97;0.60;;;20.50;1.00;;;;;;6273511;22;20446;-40
2023/10/14 12:55:44;;;;;;;1.27;0.70;;;20.40;1.00;;;;;;6275766;22;20375;-41
2023/10/14 12:58:15;;;;;;;1.80;0.70;;;20.30;1.00;;;;;;6271327;22;20414;-43
2023/10/14 13:00:42;;;;;;;1.20;0.40;;;20.20;1.00;;;;;;6271688;22;20679;-39
2023/10/14 13:03:11;;;;;;;1.47;0.67;;;20.10;1.00;;;;;;6273734;22;20382;-42
2023/10/14 13:05:46;;;;;;;1.30;0.60;;;20.10;1.00;;;;;;6271552;22;20387;-43
2023/10/14 13:08:18;;;;;;;1.40;0.60;;;20.00;1.00;;;;;;6274100;22;20363;-42
2023/10/14 13:10:45;;;;;;;1.57;0.63;;;20.00;1.00;;;;;;6274180;22;20409;-41
2023/10/14 13:13:12;;;;;;;2.50;0.80;;;19.90;1.00;;;;;;6275194;22;20383;-40
2023/10/14 13:15:38;;;;;;;1.30;0.60;;;19.90;1.00;;;;;;6275251;22;20414;-41
2023/10/14 13:18:05;;;;;;;1.23;0.60;;;20.00;1.00;;;;;;6274667;22;20383;-42
2023/10/14 13:20:35;;;;;;;1.10;0.57;;;20.00;1.00;;;;;;6271223;22;20718;-44
2023/10/14 13:23:07;;;;;;;2.70;0.87;;;20.00;1.00;;;;;;6273204;22;20669;-42
2023/10/14 13:25:36;;;;;;;1.40;0.60;;;20.10;1.00;;;;;;6274717;22;20379;-44
2023/10/14 13:28:09;;;;;;;1.20;0.60;;;20.10;1.00;;;;;;6272480;22;20383;-41
2023/10/14 13:30:45;;;;;;;1.20;0.60;;;20.10;1.00;;;;;;6272343;22;20387;-41
2023/10/14 13:33:12;;;;;;;2.07;1.00;;;20.00;1.00;;;;;;6271830;22;20469;-44
2023/10/14 13:35:39;;;;;;;1.13;0.70;;;20.00;1.00;;;;;;6272876;22;20347;-40
2023/10/14 13:38:10;;;;;;;1.40;0.73;;;20.00;1.00;;;;;;6273966;22;20634;-43
2023/10/14 13:40:40;;;;;;;1.20;0.70;;;19.90;1.00;;;;;;6272587;22;20375;-41
2023/10/14 13:43:06;;;;;;;1.77;0.80;;;19.80;1.00;;;;;;6270198;22;20425;-42
2023/10/14 13:45:32;;;;;;;1.67;0.80;;;19.80;1.00;;;;;;6273221;22;20515;-41